createdAt,value
2017-08-14T00:02:11.018Z,12.90
2017-08-14T00:04:38.630Z,12.80
2017-08-14T00:07:06.249Z,12.80
2017-08-14T00:09:33.833Z,12.80
2017-08-14T00:12:01.422Z,12.70
2017-08-14T00:14:29.990Z,12.70
2017-08-14T00:16:58.341Z,12.70
2017-08-14T00:19:26.678Z,12.70
2017-08-14T00:21:54.305Z,12.70
2017-08-14T00:24:21.888Z,12.70
2017-08-14T00:26:49.454Z,12.60
2017-08-14T00:29:17.842Z,12.60
2017-08-14T00:31:45.421Z,12.60
2017-08-14T00:34:13.014Z,12.60
2017-08-14T00:36:40.678Z,12.60
2017-08-14T00:39:08.275Z,12.60
2017-08-14T00:41:36.611Z,12.50
2017-08-14T00:44:04.250Z,12.50
2017-08-14T00:46:31.850Z,12.50
2017-08-14T00:48:59.448Z,12.40
2017-08-14T00:51:27.248Z,12.40
2017-08-14T00:53:54.835Z,12.40
2017-08-14T00:56:22.421Z,12.30
2017-08-14T00:58:50.798Z,12.20
2017-08-14T01:01:18.370Z,12.20
2017-08-14T01:03:45.964Z,12.20
2017-08-14T01:06:14.376Z,12.20
2017-08-14T01:08:41.987Z,12.20
2017-08-14T01:11:10.323Z,12.20
2017-08-14T01:13:37.966Z,12.10
2017-08-14T01:16:05.537Z,12.10
2017-08-14T01:18:33.134Z,12.10
2017-08-14T01:21:00.789Z,12.10
2017-08-14T01:23:28.359Z,12.10
2017-08-14T01:25:56.715Z,12.00
2017-08-14T01:28:24.346Z,12.00
2017-08-14T01:30:51.939Z,12.00
2017-08-14T01:33:19.562Z,11.90
2017-08-14T01:35:47.964Z,11.90
2017-08-14T01:38:15.538Z,11.90
2017-08-14T01:40:43.137Z,11.90
2017-08-14T01:43:10.793Z,11.80
2017-08-14T01:45:38.376Z,11.80
2017-08-14T01:48:05.964Z,11.80
2017-08-14T01:50:33.609Z,11.80
2017-08-14T01:53:01.192Z,11.80
2017-08-14T01:55:28.769Z,11.80
2017-08-14T01:57:57.168Z,11.70
2017-08-14T02:00:24.734Z,11.70
2017-08-14T02:02:52.310Z,11.70
2017-08-14T02:05:20.079Z,11.70
2017-08-14T02:07:47.649Z,11.70
2017-08-14T02:10:15.242Z,11.70
2017-08-14T02:12:42.928Z,11.60
2017-08-14T02:15:10.526Z,11.60
2017-08-14T02:17:38.108Z,11.60
2017-08-14T02:20:06.189Z,11.50
2017-08-14T02:22:33.767Z,11.50
2017-08-14T02:25:01.350Z,11.50
2017-08-14T02:27:28.985Z,11.50
2017-08-14T02:29:57.319Z,11.50
2017-08-14T02:32:24.916Z,11.50
2017-08-14T02:34:52.565Z,11.50
2017-08-14T02:37:20.130Z,11.50
2017-08-14T02:39:47.716Z,11.40
2017-08-14T02:42:16.323Z,11.40
2017-08-14T02:44:43.913Z,11.40
2017-08-14T02:47:11.491Z,11.40
2017-08-14T02:49:39.878Z,11.40
2017-08-14T02:52:07.472Z,11.40
2017-08-14T02:54:35.849Z,11.40
2017-08-14T02:57:04.318Z,11.40
2017-08-14T02:59:31.909Z,11.30
2017-08-14T03:01:59.482Z,11.30
2017-08-14T03:04:27.137Z,11.30
2017-08-14T03:06:55.482Z,11.30
2017-08-14T03:09:23.078Z,11.30
2017-08-14T03:11:50.707Z,11.30
2017-08-14T03:14:18.287Z,11.30
2017-08-14T03:16:45.881Z,11.30
2017-08-14T03:19:14.280Z,11.20
2017-08-14T03:21:41.869Z,11.20
2017-08-14T03:24:09.456Z,11.20
2017-08-14T03:26:37.092Z,11.20
2017-08-14T03:29:04.684Z,11.20
2017-08-14T03:31:32.291Z,11.10
2017-08-14T03:33:59.936Z,11.10
2017-08-14T03:36:27.528Z,11.10
2017-08-14T03:38:55.124Z,11.10
2017-08-14T03:41:22.982Z,11.10
2017-08-14T03:43:50.566Z,11.10
2017-08-14T03:46:18.167Z,11.10
2017-08-14T03:48:45.826Z,11.10
2017-08-14T03:51:13.399Z,11.10
2017-08-14T03:53:40.971Z,11.10
2017-08-14T03:56:09.457Z,11.10
2017-08-14T03:58:37.048Z,11.10
2017-08-14T04:01:04.626Z,11.10
2017-08-14T04:03:33.470Z,11.20
2017-08-14T04:06:01.066Z,11.20
2017-08-14T04:08:28.670Z,11.20
2017-08-14T04:10:56.316Z,11.20
2017-08-14T04:13:23.913Z,11.20
2017-08-14T04:15:51.487Z,11.30
2017-08-14T04:18:19.116Z,11.40
2017-08-14T04:20:46.716Z,11.40
2017-08-14T04:23:15.072Z,11.50
2017-08-14T04:25:42.700Z,11.50
2017-08-14T04:28:10.292Z,11.60
2017-08-14T04:30:37.884Z,11.70
2017-08-14T04:33:05.542Z,11.80
2017-08-14T04:35:33.124Z,11.90
2017-08-14T04:38:00.714Z,12.00
2017-08-14T04:40:28.362Z,12.10
2017-08-14T04:42:55.960Z,12.60
2017-08-14T04:45:23.546Z,14.00
2017-08-14T04:47:51.641Z,15.90
2017-08-14T04:50:19.309Z,17.60
2017-08-14T04:52:46.915Z,18.90
2017-08-14T04:55:14.560Z,20.10
2017-08-14T04:57:42.141Z,21.10
2017-08-14T05:00:09.735Z,22.10
2017-08-14T05:02:37.356Z,23.00
2017-08-14T05:05:04.918Z,23.70
2017-08-14T05:07:32.495Z,24.40
2017-08-14T05:10:01.042Z,26.10
2017-08-14T05:12:29.140Z,26.00
2017-08-14T05:14:56.887Z,26.80
2017-08-14T05:17:24.513Z,27.30
2017-08-14T05:19:52.086Z,27.30
2017-08-14T05:22:19.673Z,27.80
2017-08-14T05:24:47.279Z,27.70
2017-08-14T05:27:14.866Z,28.50
2017-08-14T05:29:43.615Z,29.40
2017-08-14T05:32:11.338Z,29.90
2017-08-14T05:34:39.916Z,30.40
2017-08-14T05:37:07.681Z,30.70
2017-08-14T05:39:35.305Z,31.10
2017-08-14T05:42:02.894Z,31.50
2017-08-14T05:44:31.084Z,31.80
2017-08-14T05:46:58.719Z,32.80
2017-08-14T05:49:26.305Z,33.40
2017-08-14T05:51:53.880Z,34.10
2017-08-14T05:54:21.524Z,34.60
2017-08-14T05:56:49.092Z,34.40
2017-08-14T05:59:16.682Z,34.10
2017-08-14T06:01:44.572Z,32.10
2017-08-14T06:04:12.138Z,31.30
2017-08-14T06:06:39.726Z,30.90
2017-08-14T06:09:07.344Z,31.70
2017-08-14T06:11:34.934Z,32.90
2017-08-14T06:14:02.520Z,34.20
2017-08-14T06:16:30.136Z,35.40
2017-08-14T06:18:58.464Z,36.20
2017-08-14T06:21:26.144Z,36.80
2017-08-14T06:23:53.751Z,36.90
2017-08-14T06:26:21.338Z,35.60
2017-08-14T06:28:49.733Z,34.70
2017-08-14T06:31:17.454Z,34.70
2017-08-14T06:33:45.810Z,32.60
2017-08-14T06:36:14.170Z,30.90
2017-08-14T06:38:41.793Z,30.90
2017-08-14T06:41:09.383Z,29.30
2017-08-14T06:43:36.968Z,27.70
2017-08-14T06:46:04.610Z,26.70
2017-08-14T06:48:32.184Z,26.30
2017-08-14T06:50:59.769Z,26.20
2017-08-14T06:53:27.412Z,25.50
2017-08-14T06:55:54.974Z,25.10
2017-08-14T06:58:22.554Z,24.90
2017-08-14T07:00:50.162Z,24.80
2017-08-14T07:03:17.736Z,24.70
2017-08-14T07:05:45.320Z,24.50
2017-08-14T07:08:13.709Z,24.80
2017-08-14T07:10:41.271Z,24.80
2017-08-14T07:13:08.846Z,24.80
2017-08-14T07:15:36.462Z,24.80
2017-08-14T07:18:04.045Z,24.70
2017-08-14T07:20:32.392Z,24.40
2017-08-14T07:23:00.010Z,24.40
2017-08-14T07:25:27.589Z,24.50
2017-08-14T07:27:55.150Z,23.90
2017-08-14T07:30:23.557Z,23.80
2017-08-14T07:32:51.151Z,23.80
2017-08-14T07:35:19.500Z,23.00
2017-08-14T07:37:47.984Z,23.00
2017-08-14T07:40:16.354Z,21.90
2017-08-14T07:42:43.947Z,21.80
2017-08-14T07:45:11.581Z,21.30
2017-08-14T07:47:39.161Z,21.00
2017-08-14T07:50:06.726Z,20.90
2017-08-14T07:52:35.111Z,21.80
2017-08-14T07:55:02.670Z,21.80
2017-08-14T07:57:30.249Z,22.10
2017-08-14T07:59:57.899Z,22.00
2017-08-14T08:02:25.480Z,22.30
2017-08-14T08:04:53.272Z,22.20
2017-08-14T08:07:20.909Z,22.20
2017-08-14T08:09:48.492Z,22.30
2017-08-14T08:12:16.072Z,22.30
2017-08-14T08:14:43.697Z,22.60
2017-08-14T08:17:11.258Z,22.70
2017-08-14T08:19:38.832Z,23.30
2017-08-14T08:22:06.452Z,23.80
2017-08-14T08:24:34.038Z,24.00
2017-08-14T08:27:01.616Z,23.40
2017-08-14T08:29:29.244Z,23.10
2017-08-14T08:31:56.826Z,23.10
2017-08-14T08:34:24.400Z,23.50
2017-08-14T08:36:52.030Z,23.90
2017-08-14T08:39:19.610Z,24.20
2017-08-14T08:41:47.206Z,23.50
2017-08-14T08:44:14.968Z,22.80
2017-08-14T08:46:42.554Z,22.60
2017-08-14T08:49:10.144Z,23.10
2017-08-14T08:51:37.750Z,23.40
2017-08-14T08:54:05.328Z,23.50
2017-08-14T08:56:32.908Z,23.90
2017-08-14T08:59:00.668Z,24.10
2017-08-14T09:01:28.227Z,24.40
2017-08-14T09:03:55.816Z,24.50
2017-08-14T09:06:23.431Z,24.80
2017-08-14T09:08:51.004Z,24.90
2017-08-14T09:11:18.581Z,25.20
2017-08-14T09:13:46.344Z,25.30
2017-08-14T09:16:13.920Z,25.30
2017-08-14T09:18:41.482Z,25.40
2017-08-14T09:21:09.108Z,25.40
2017-08-14T09:23:36.695Z,25.30
2017-08-14T09:26:04.264Z,25.20
2017-08-14T09:28:31.892Z,25.10
2017-08-14T09:30:59.468Z,25.20
2017-08-14T09:33:27.050Z,25.30
2017-08-14T09:35:54.659Z,25.40
2017-08-14T09:38:22.261Z,25.50
2017-08-14T09:40:49.841Z,25.40
2017-08-14T09:43:17.473Z,25.30
2017-08-14T09:45:45.056Z,25.30
2017-08-14T09:48:12.622Z,24.70
2017-08-14T09:50:40.266Z,23.80
2017-08-14T09:53:07.836Z,22.90
2017-08-14T09:55:35.395Z,22.90
2017-08-14T09:58:03.026Z,22.70
2017-08-14T10:00:30.594Z,22.60
2017-08-14T10:02:58.163Z,23.10
2017-08-14T10:05:25.792Z,23.10
2017-08-14T10:07:53.367Z,22.70
2017-08-14T10:10:20.931Z,22.30
2017-08-14T10:12:48.554Z,21.90
2017-08-14T10:15:16.122Z,21.60
2017-08-14T10:17:43.718Z,21.80
2017-08-14T10:20:11.353Z,22.40
2017-08-14T10:22:38.933Z,22.50
2017-08-14T10:25:06.526Z,22.60
2017-08-14T10:27:34.152Z,23.00
2017-08-14T10:30:01.758Z,23.10
2017-08-14T10:32:29.332Z,23.20
2017-08-14T10:34:57.083Z,23.10
2017-08-14T10:37:24.661Z,23.20
2017-08-14T10:39:52.231Z,23.60
2017-08-14T10:42:19.861Z,24.00
2017-08-14T10:44:48.209Z,24.40
2017-08-14T10:47:16.557Z,24.30
2017-08-14T10:49:44.336Z,24.30
2017-08-14T10:52:12.690Z,24.00
2017-08-14T10:54:41.017Z,23.40
2017-08-14T10:57:08.623Z,23.30
2017-08-14T10:59:36.210Z,23.50
2017-08-14T11:02:03.790Z,23.90
2017-08-14T11:04:32.180Z,24.30
2017-08-14T11:06:59.769Z,24.30
2017-08-14T11:09:27.358Z,24.40
2017-08-14T11:11:54.995Z,24.60
2017-08-14T11:14:22.572Z,24.70
2017-08-14T11:16:50.152Z,24.60
2017-08-14T11:19:17.795Z,24.80
2017-08-14T11:21:46.153Z,23.90
2017-08-14T11:24:13.755Z,23.90
2017-08-14T11:26:41.376Z,23.70
2017-08-14T11:29:09.011Z,23.30
2017-08-14T11:31:37.357Z,23.10
2017-08-14T11:34:04.967Z,23.00
2017-08-14T11:36:32.526Z,23.30
2017-08-14T11:39:00.091Z,23.40
2017-08-14T11:41:28.565Z,23.90
2017-08-14T11:43:56.909Z,24.00
2017-08-14T11:46:24.489Z,23.90
2017-08-14T11:48:52.110Z,24.00
2017-08-14T11:51:20.452Z,24.20
2017-08-14T11:53:48.028Z,24.10
2017-08-14T11:56:16.430Z,24.30
2017-08-14T11:58:44.016Z,24.30
2017-08-14T12:01:11.587Z,23.90
2017-08-14T12:03:39.217Z,23.90
2017-08-14T12:06:07.610Z,23.70
2017-08-14T12:08:35.175Z,23.60
2017-08-14T12:11:02.821Z,23.30
2017-08-14T12:13:30.405Z,23.30
2017-08-14T12:15:58.771Z,23.50
2017-08-14T12:18:27.169Z,23.60
2017-08-14T12:20:54.764Z,23.60
2017-08-14T12:23:22.345Z,23.60
2017-08-14T12:25:49.963Z,23.80
2017-08-14T12:28:17.532Z,23.90
2017-08-14T12:30:45.103Z,23.60
2017-08-14T12:33:12.736Z,23.10
2017-08-14T12:35:40.314Z,23.10
2017-08-14T12:38:07.905Z,23.20
2017-08-14T12:40:35.529Z,23.30
2017-08-14T12:43:03.896Z,23.70
2017-08-14T12:45:32.368Z,23.70
2017-08-14T12:48:00.780Z,23.80
2017-08-14T12:50:28.381Z,23.80
2017-08-14T12:52:55.947Z,23.90
2017-08-14T12:55:23.793Z,23.90
2017-08-14T12:57:51.390Z,23.70
2017-08-14T13:00:18.980Z,23.80
2017-08-14T13:02:46.608Z,23.80
2017-08-14T13:05:14.198Z,24.00
2017-08-14T13:07:41.827Z,24.10
2017-08-14T13:10:09.461Z,23.80
2017-08-14T13:12:37.027Z,23.90
2017-08-14T13:15:04.689Z,23.90
2017-08-14T13:17:32.332Z,23.60
2017-08-14T13:19:59.924Z,23.70
2017-08-14T13:22:27.519Z,23.90
2017-08-14T13:24:55.150Z,24.10
2017-08-14T13:27:22.736Z,24.90
2017-08-14T13:29:50.302Z,23.90
2017-08-14T13:32:17.971Z,23.90
2017-08-14T13:34:45.548Z,23.80
2017-08-14T13:37:13.127Z,23.80
2017-08-14T13:39:41.532Z,23.80
2017-08-14T13:42:09.099Z,23.80
2017-08-14T13:44:36.676Z,23.30
2017-08-14T13:47:05.098Z,22.80
2017-08-14T13:49:32.677Z,22.70
2017-08-14T13:52:00.266Z,22.70
2017-08-14T13:54:27.937Z,22.90
2017-08-14T13:56:55.693Z,23.20
2017-08-14T13:59:23.320Z,23.40
2017-08-14T14:01:50.930Z,23.60
2017-08-14T14:04:19.641Z,23.70
2017-08-14T14:06:47.225Z,23.70
2017-08-14T14:09:15.621Z,23.70
2017-08-14T14:11:43.198Z,23.70
2017-08-14T14:14:10.780Z,23.70
2017-08-14T14:16:38.420Z,23.70
2017-08-14T14:19:06.767Z,23.60
2017-08-14T14:21:34.347Z,23.60
2017-08-14T14:24:01.977Z,23.70
2017-08-14T14:26:30.312Z,23.70
2017-08-14T14:28:57.883Z,23.70
2017-08-14T14:31:26.448Z,23.60
2017-08-14T14:33:54.799Z,23.70
2017-08-14T14:36:23.164Z,23.70
2017-08-14T14:38:51.578Z,23.80
2017-08-14T14:41:19.170Z,23.80
2017-08-14T14:43:47.534Z,23.70
2017-08-14T14:46:15.941Z,23.60
2017-08-14T14:48:43.524Z,23.60
2017-08-14T14:51:11.113Z,23.50
2017-08-14T14:53:38.737Z,23.30
2017-08-14T14:56:06.317Z,23.30
2017-08-14T14:58:33.901Z,23.20
2017-08-14T15:01:01.506Z,23.00
2017-08-14T15:03:29.067Z,23.20
2017-08-14T15:05:56.641Z,23.30
2017-08-14T15:08:24.254Z,23.40
2017-08-14T15:10:51.836Z,23.50
2017-08-14T15:13:19.411Z,23.60
2017-08-14T15:15:47.046Z,23.60
2017-08-14T15:18:14.615Z,23.70
2017-08-14T15:20:42.184Z,23.50
2017-08-14T15:23:09.830Z,23.30
2017-08-14T15:25:37.386Z,23.10
2017-08-14T15:28:04.954Z,23.20
2017-08-14T15:30:32.588Z,23.40
2017-08-14T15:33:00.163Z,23.50
2017-08-14T15:35:27.740Z,23.60
2017-08-14T15:37:55.380Z,23.60
2017-08-14T15:40:22.947Z,23.70
2017-08-14T15:42:50.510Z,23.70
2017-08-14T15:45:18.150Z,23.60
2017-08-14T15:47:45.731Z,23.70
2017-08-14T15:50:13.313Z,23.70
2017-08-14T15:52:40.934Z,23.60
2017-08-14T15:55:08.534Z,23.70
2017-08-14T15:57:36.121Z,23.70
2017-08-14T16:00:03.757Z,23.70
2017-08-14T16:02:31.345Z,23.60
2017-08-14T16:04:58.938Z,23.50
2017-08-14T16:07:26.568Z,23.60
2017-08-14T16:09:54.148Z,23.60
2017-08-14T16:12:21.715Z,23.60
2017-08-14T16:14:49.331Z,23.50
2017-08-14T16:17:16.925Z,23.30
2017-08-14T16:19:45.960Z,23.20
2017-08-14T16:22:13.614Z,23.20
2017-08-14T16:24:41.174Z,23.30
2017-08-14T16:27:08.737Z,23.30
2017-08-14T16:29:36.382Z,23.30
2017-08-14T16:32:03.968Z,23.20
2017-08-14T16:34:31.543Z,23.20
2017-08-14T16:36:59.167Z,23.10
2017-08-14T16:39:26.748Z,23.10
2017-08-14T16:41:54.350Z,23.00
2017-08-14T16:44:21.984Z,23.00
2017-08-14T16:46:49.564Z,22.90
2017-08-14T16:49:17.147Z,22.90
2017-08-14T16:51:45.006Z,22.70
2017-08-14T16:54:13.363Z,22.70
2017-08-14T16:56:41.712Z,22.70
2017-08-14T16:59:09.323Z,22.60
2017-08-14T17:01:36.911Z,22.70
2017-08-14T17:04:04.502Z,22.70
2017-08-14T17:06:32.140Z,22.60
2017-08-14T17:08:59.702Z,22.60
2017-08-14T17:11:27.282Z,22.60
2017-08-14T17:13:55.681Z,22.50
2017-08-14T17:16:23.265Z,22.50
2017-08-14T17:18:50.874Z,22.40
2017-08-14T17:21:18.881Z,22.40
2017-08-14T17:23:46.487Z,22.40
2017-08-14T17:26:14.153Z,22.40
2017-08-14T17:28:41.810Z,22.40
2017-08-14T17:31:09.384Z,22.30
2017-08-14T17:33:37.738Z,22.30
2017-08-14T17:36:06.143Z,22.20
2017-08-14T17:38:33.715Z,22.20
2017-08-14T17:41:01.582Z,22.20
2017-08-14T17:43:29.193Z,22.10
2017-08-14T17:45:56.754Z,22.10
2017-08-14T17:48:24.333Z,22.10
2017-08-14T17:50:52.711Z,22.00
2017-08-14T17:53:20.306Z,21.90
2017-08-14T17:55:47.884Z,21.90
2017-08-14T17:58:16.268Z,21.80
2017-08-14T18:00:43.853Z,21.70
2017-08-14T18:03:11.562Z,21.70
2017-08-14T18:05:39.214Z,21.70
2017-08-14T18:08:06.797Z,21.70
2017-08-14T18:10:34.367Z,21.60
2017-08-14T18:13:02.764Z,21.50
2017-08-14T18:15:30.339Z,21.50
2017-08-14T18:17:58.730Z,21.50
2017-08-14T18:20:26.361Z,21.40
2017-08-14T18:22:53.935Z,21.30
2017-08-14T18:25:21.509Z,21.30
2017-08-14T18:27:49.143Z,21.20
2017-08-14T18:30:16.733Z,21.20
2017-08-14T18:32:44.322Z,21.10
2017-08-14T18:35:11.944Z,21.10
2017-08-14T18:37:39.525Z,21.00
2017-08-14T18:40:07.127Z,21.00
2017-08-14T18:42:35.524Z,20.90
2017-08-14T18:45:03.146Z,20.90
2017-08-14T18:47:31.489Z,20.80
2017-08-14T18:49:59.146Z,20.80
2017-08-14T18:52:27.483Z,20.80
2017-08-14T18:54:55.051Z,20.80
2017-08-14T18:57:23.474Z,20.70
2017-08-14T18:59:51.053Z,20.70
2017-08-14T19:02:19.409Z,20.60
2017-08-14T19:04:47.055Z,20.60
2017-08-14T19:07:14.632Z,20.60
2017-08-14T19:09:43.600Z,20.60
2017-08-14T19:12:09.955Z,20.50
2017-08-14T19:14:37.533Z,20.50
2017-08-14T19:17:05.108Z,20.50
2017-08-14T19:19:32.751Z,20.40
2017-08-14T19:22:00.354Z,20.40
2017-08-14T19:24:27.923Z,20.40
2017-08-14T19:26:56.337Z,20.30
2017-08-14T19:29:23.900Z,20.30
2017-08-14T19:31:51.822Z,20.30
2017-08-14T19:34:22.593Z,20.30
2017-08-14T19:36:50.275Z,20.30
2017-08-14T19:39:17.860Z,20.30
2017-08-14T19:41:45.513Z,20.30
2017-08-14T19:44:13.088Z,20.30
2017-08-14T19:46:40.656Z,20.30
2017-08-14T19:49:08.301Z,20.20
2017-08-14T19:51:35.891Z,20.20
2017-08-14T19:54:03.474Z,20.10
2017-08-14T19:56:31.134Z,20.10
2017-08-14T19:58:58.712Z,20.10
2017-08-14T20:01:26.292Z,20.10
2017-08-14T20:03:53.918Z,20.10
2017-08-14T20:06:21.510Z,20.10
2017-08-14T20:08:49.092Z,20.10
2017-08-14T20:11:16.723Z,20.10
2017-08-14T20:13:44.301Z,20.10
2017-08-14T20:16:11.882Z,20.10
2017-08-14T20:18:39.509Z,20.10
2017-08-14T20:21:07.864Z,20.00
2017-08-14T20:23:36.228Z,20.00
2017-08-14T20:26:04.742Z,19.90
2017-08-14T20:28:32.320Z,19.90
2017-08-14T20:31:00.692Z,19.90
2017-08-14T20:33:29.108Z,19.80
2017-08-14T20:35:56.683Z,19.80
2017-08-14T20:38:24.256Z,19.90
2017-08-14T20:40:52.664Z,19.90
2017-08-14T20:43:20.240Z,19.90
2017-08-14T20:45:47.825Z,19.90
2017-08-14T20:48:15.444Z,19.90
2017-08-14T20:50:43.783Z,19.90
2017-08-14T20:53:11.359Z,19.90
2017-08-14T20:55:39.745Z,19.90
2017-08-14T20:58:07.321Z,19.80
2017-08-14T21:00:34.910Z,19.80
2017-08-14T21:03:03.301Z,19.80
2017-08-14T21:05:30.880Z,19.80
2017-08-14T21:07:58.470Z,19.80
2017-08-14T21:10:26.089Z,19.80
2017-08-14T21:12:54.450Z,19.70
2017-08-14T21:15:22.786Z,19.70
2017-08-14T21:17:50.413Z,19.70
2017-08-14T21:20:17.978Z,19.70
2017-08-14T21:22:45.552Z,19.70
2017-08-14T21:25:13.968Z,19.70
2017-08-14T21:27:41.563Z,19.70
2017-08-14T21:30:09.960Z,19.70
2017-08-14T21:32:37.692Z,19.70
2017-08-14T21:35:05.255Z,19.70
2017-08-14T21:37:32.850Z,19.70
2017-08-14T21:40:01.243Z,19.70
2017-08-14T21:42:28.830Z,19.60
2017-08-14T21:44:56.404Z,19.60
2017-08-14T21:47:24.806Z,19.60
2017-08-14T21:49:52.376Z,19.60
2017-08-14T21:52:19.947Z,19.60
2017-08-14T21:54:47.565Z,19.60
2017-08-14T21:57:15.130Z,19.60
2017-08-14T21:59:42.712Z,19.50
2017-08-14T22:02:10.351Z,19.50
2017-08-14T22:04:37.942Z,19.50
2017-08-14T22:07:05.524Z,19.50
2017-08-14T22:09:33.921Z,19.40
2017-08-14T22:12:01.566Z,19.40
2017-08-14T22:14:29.144Z,19.40
2017-08-14T22:16:56.798Z,19.40
2017-08-14T22:19:24.376Z,19.30
2017-08-14T22:21:52.723Z,19.30
2017-08-14T22:24:21.150Z,19.30
2017-08-14T22:26:48.756Z,19.20
2017-08-14T22:29:16.359Z,19.20
2017-08-14T22:31:43.996Z,19.20
2017-08-14T22:34:11.580Z,19.20
2017-08-14T22:36:39.915Z,19.20
2017-08-14T22:39:07.532Z,19.20
2017-08-14T22:41:35.126Z,19.20
2017-08-14T22:44:03.486Z,19.20
2017-08-14T22:46:32.087Z,19.20
2017-08-14T22:48:59.660Z,19.20
2017-08-14T22:51:27.245Z,19.20
2017-08-14T22:53:55.646Z,19.20
2017-08-14T22:56:23.229Z,19.20
2017-08-14T22:58:50.807Z,19.20
2017-08-14T23:01:18.439Z,19.20
2017-08-14T23:03:46.785Z,19.10
2017-08-14T23:06:14.369Z,19.10
2017-08-14T23:08:42.006Z,19.10
2017-08-14T23:11:09.592Z,19.10
2017-08-14T23:13:37.163Z,19.10
2017-08-14T23:16:04.954Z,19.00
2017-08-14T23:18:32.524Z,19.00
2017-08-14T23:21:00.109Z,19.00
2017-08-14T23:23:28.504Z,18.90
2017-08-14T23:25:56.088Z,18.80
2017-08-14T23:28:23.674Z,18.80
2017-08-14T23:30:51.301Z,18.80
2017-08-14T23:33:18.885Z,18.70
2017-08-14T23:35:46.466Z,18.70
2017-08-14T23:38:14.103Z,18.70
2017-08-14T23:40:41.684Z,18.70
2017-08-14T23:43:09.251Z,18.70
2017-08-14T23:45:36.992Z,18.60
2017-08-14T23:48:04.567Z,18.60
2017-08-14T23:50:32.152Z,18.60
2017-08-14T23:52:59.788Z,18.50
2017-08-14T23:55:27.369Z,18.50
2017-08-14T23:57:54.947Z,18.50
